sensor_id;sensor_type;location;lat;lon;timestamp;pressure;altitude;pressure_sealevel;temperature;humidity
50867;BME280;36839;51.946;21.002;2022-11-15T00:01:32;100542.53;;;5.27;100.00
50867;BME280;36839;51.946;21.002;2022-11-15T00:04:01;100540.03;;;5.26;100.00
50867;BME280;36839;51.946;21.002;2022-11-15T00:06:29;100534.25;;;5.25;100.00
50867;BME280;36839;51.946;21.002;2022-11-15T00:08:58;100527.41;;;5.25;100.00
50867;BME280;36839;51.946;21.002;2022-11-15T00:11:25;100529.08;;;5.26;100.00
50867;BME280;36839;51.946;21.002;2022-11-15T00:13:51;100520.86;;;5.26;100.00
50867;BME280;36839;51.946;21.002;2022-11-15T00:16:21;100516.28;;;5.29;100.00
50867;BME280;36839;51.946;21.002;2022-11-15T00:18:48;100516.28;;;5.29;100.00
50867;BME280;36839;51.946;21.002;2022-11-15T00:21:17;100517.05;;;5.36;100.00
50867;BME280;36839;51.946;21.002;2022-11-15T00:23:46;100514.61;;;5.37;100.00
50867;BME280;36839;51.946;21.002;2022-11-15T00:26:15;100514.55;;;5.34;100.00
50867;BME280;36839;51.946;21.002;2022-11-15T00:28:42;100509.84;;;5.32;100.00
50867;BME280;36839;51.946;21.002;2022-11-15T00:31:14;100509.84;;;5.32;100.00
50867;BME280;36839;51.946;21.002;2022-11-15T00:33:43;100497.41;;;5.30;100.00
50867;BME280;36839;51.946;21.002;2022-11-15T00:36:12;100497.41;;;5.30;100.00
50867;BME280;36839;51.946;21.002;2022-11-15T00:38:39;100500.92;;;5.28;100.00
50867;BME280;36839;51.946;21.002;2022-11-15T00:41:08;100493.77;;;5.27;100.00
50867;BME280;36839;51.946;21.002;2022-11-15T00:43:36;100491.34;;;5.28;100.00
50867;BME280;36839;51.946;21.002;2022-11-15T00:46:05;100488.30;;;5.27;100.00
50867;BME280;36839;51.946;21.002;2022-11-15T00:48:33;100479.02;;;5.28;100.00
50867;BME280;36839;51.946;21.002;2022-11-15T00:51:00;100476.57;;;5.29;100.00
50867;BME280;36839;51.946;21.002;2022-11-15T00:53:28;100476.57;;;5.29;100.00
50867;BME280;36839;51.946;21.002;2022-11-15T00:55:54;100474.37;;;5.28;100.00
50867;BME280;36839;51.946;21.002;2022-11-15T00:58:22;100471.87;;;5.27;100.00
50867;BME280;36839;51.946;21.002;2022-11-15T01:00:49;100467.69;;;5.24;100.00
50867;BME280;36839;51.946;21.002;2022-11-15T01:03:19;100457.27;;;5.24;100.00
50867;BME280;36839;51.946;21.002;2022-11-15T01:05:45;100460.55;;;5.23;100.00
50867;BME280;36839;51.946;21.002;2022-11-15T01:08:13;100450.73;;;5.25;100.00
50867;BME280;36839;51.946;21.002;2022-11-15T01:10:41;100448.05;;;5.27;100.00
50867;BME280;36839;51.946;21.002;2022-11-15T01:13:08;100448.05;;;5.27;100.00
50867;BME280;36839;51.946;21.002;2022-11-15T01:15:34;100433.89;;;5.30;100.00
50867;BME280;36839;51.946;21.002;2022-11-15T01:18:03;100431.32;;;5.26;100.00
50867;BME280;36839;51.946;21.002;2022-11-15T01:20:33;100427.52;;;5.27;100.00
50867;BME280;36839;51.946;21.002;2022-11-15T01:22:59;100425.61;;;5.28;100.00
50867;BME280;36839;51.946;21.002;2022-11-15T01:25:28;100425.48;;;5.23;100.00
50867;BME280;36839;51.946;21.002;2022-11-15T01:27:54;100426.16;;;5.18;100.00
50867;BME280;36839;51.946;21.002;2022-11-15T01:30:24;100423.66;;;5.16;100.00
50867;BME280;36839;51.946;21.002;2022-11-15T01:32:52;100423.95;;;5.18;100.00
50867;BME280;36839;51.946;21.002;2022-11-15T01:35:18;100416.20;;;5.14;100.00
50867;BME280;36839;51.946;21.002;2022-11-15T01:37:46;100414.45;;;5.11;100.00
50867;BME280;36839;51.946;21.002;2022-11-15T01:40:13;100416.28;;;5.08;100.00
50867;BME280;36839;51.946;21.002;2022-11-15T01:42:40;100407.47;;;5.06;100.00
50867;BME280;36839;51.946;21.002;2022-11-15T01:45:27;100407.47;;;5.06;100.00
50867;BME280;36839;51.946;21.002;2022-11-15T01:48:15;100400.69;;;5.08;100.00
50867;BME280;36839;51.946;21.002;2022-11-15T01:50:43;100400.69;;;5.08;100.00
50867;BME280;36839;51.946;21.002;2022-11-15T01:53:12;100395.45;;;5.07;100.00
50867;BME280;36839;51.946;21.002;2022-11-15T01:55:42;100391.50;;;5.12;100.00
50867;BME280;36839;51.946;21.002;2022-11-15T01:58:08;100391.50;;;5.12;100.00
50867;BME280;36839;51.946;21.002;2022-11-15T02:00:38;100388.53;;;5.13;100.00
50867;BME280;36839;51.946;21.002;2022-11-15T02:03:06;100390.80;;;5.16;100.00
50867;BME280;36839;51.946;21.002;2022-11-15T02:05:36;100392.77;;;5.19;100.00
50867;BME280;36839;51.946;21.002;2022-11-15T02:08:04;100393.00;;;5.17;100.00
50867;BME280;36839;51.946;21.002;2022-11-15T02:10:35;100381.22;;;5.16;100.00
50867;BME280;36839;51.946;21.002;2022-11-15T02:13:03;100381.22;;;5.16;100.00
50867;BME280;36839;51.946;21.002;2022-11-15T02:15:33;100378.95;;;5.13;100.00
50867;BME280;36839;51.946;21.002;2022-11-15T02:18:11;100382.22;;;5.13;100.00
50867;BME280;36839;51.946;21.002;2022-11-15T02:36:49;100365.12;;;4.99;100.00
50867;BME280;36839;51.946;21.002;2022-11-15T02:42:28;100347.57;;;4.88;100.00
50867;BME280;36839;51.946;21.002;2022-11-15T02:44:43;100347.57;;;4.88;100.00
50867;BME280;36839;51.946;21.002;2022-11-15T02:47:12;100347.74;;;4.84;100.00
50867;BME280;36839;51.946;21.002;2022-11-15T02:49:57;100349.95;;;4.85;100.00
50867;BME280;36839;51.946;21.002;2022-11-15T02:52:24;100340.66;;;4.86;100.00
50867;BME280;36839;51.946;21.002;2022-11-15T02:54:57;100338.77;;;4.86;100.00
50867;BME280;36839;51.946;21.002;2022-11-15T03:00:23;100343.64;;;4.84;100.00
50867;BME280;36839;51.946;21.002;2022-11-15T03:06:20;100334.66;;;4.86;100.00
50867;BME280;36839;51.946;21.002;2022-11-15T03:08:52;100334.66;;;4.86;100.00
50867;BME280;36839;51.946;21.002;2022-11-15T03:11:17;100337.99;;;4.88;100.00
50867;BME280;36839;51.946;21.002;2022-11-15T03:16:37;100325.91;;;4.87;100.00
50867;BME280;36839;51.946;21.002;2022-11-15T03:19:22;100317.17;;;4.87;100.00
50867;BME280;36839;51.946;21.002;2022-11-15T03:21:52;100319.20;;;4.92;100.00
50867;BME280;36839;51.946;21.002;2022-11-15T03:24:22;100313.42;;;4.91;100.00
50867;BME280;36839;51.946;21.002;2022-11-15T03:26:54;100313.42;;;4.91;100.00
50867;BME280;36839;51.946;21.002;2022-11-15T03:29:24;100298.84;;;4.88;100.00
50867;BME280;36839;51.946;21.002;2022-11-15T03:31:56;100298.84;;;4.88;100.00
50867;BME280;36839;51.946;21.002;2022-11-15T03:37:15;100293.67;;;4.89;100.00
50867;BME280;36839;51.946;21.002;2022-11-15T03:39:43;100292.60;;;4.90;100.00
50867;BME280;36839;51.946;21.002;2022-11-15T03:42:27;100293.73;;;4.92;100.00
50867;BME280;36839;51.946;21.002;2022-11-15T03:44:54;100283.62;;;4.92;100.00
50867;BME280;36839;51.946;21.002;2022-11-15T03:47:41;100283.62;;;4.92;100.00
50867;BME280;36839;51.946;21.002;2022-11-15T03:50:13;100290.70;;;4.91;100.00
50867;BME280;36839;51.946;21.002;2022-11-15T03:52:45;100284.09;;;4.89;100.00
50867;BME280;36839;51.946;21.002;2022-11-15T03:55:18;100270.59;;;4.85;100.00
50867;BME280;36839;51.946;21.002;2022-11-15T03:57:49;100270.59;;;4.85;100.00
50867;BME280;36839;51.946;21.002;2022-11-15T04:00:17;100271.95;;;4.85;100.00
50867;BME280;36839;51.946;21.002;2022-11-15T04:02:47;100264.48;;;4.83;100.00
50867;BME280;36839;51.946;21.002;2022-11-15T04:05:16;100261.27;;;4.74;100.00
50867;BME280;36839;51.946;21.002;2022-11-15T04:07:47;100261.27;;;4.74;100.00
50867;BME280;36839;51.946;21.002;2022-11-15T04:10:14;100255.16;;;4.72;100.00
50867;BME280;36839;51.946;21.002;2022-11-15T04:12:44;100255.16;;;4.72;100.00
50867;BME280;36839;51.946;21.002;2022-11-15T04:15:17;100259.80;;;4.72;100.00
50867;BME280;36839;51.946;21.002;2022-11-15T04:17:54;100240.29;;;4.68;100.00
50867;BME280;36839;51.946;21.002;2022-11-15T04:20:24;100246.97;;;4.63;100.00
50867;BME280;36839;51.946;21.002;2022-11-15T04:23:14;100239.83;;;4.62;100.00
50867;BME280;36839;51.946;21.002;2022-11-15T04:26:02;100239.23;;;4.60;100.00
50867;BME280;36839;51.946;21.002;2022-11-15T04:28:31;100235.20;;;4.63;100.00
50867;BME280;36839;51.946;21.002;2022-11-15T04:30:57;100235.20;;;4.63;100.00
50867;BME280;36839;51.946;21.002;2022-11-15T04:33:23;100233.47;;;4.59;100.00
50867;BME280;36839;51.946;21.002;2022-11-15T04:35:51;100232.70;;;4.61;100.00
50867;BME280;36839;51.946;21.002;2022-11-15T04:38:35;100224.25;;;4.63;100.00
50867;BME280;36839;51.946;21.002;2022-11-15T04:41:02;100224.25;;;4.63;100.00
50867;BME280;36839;51.946;21.002;2022-11-15T04:43:29;100230.02;;;4.64;100.00
50867;BME280;36839;51.946;21.002;2022-11-15T04:45:55;100225.92;;;4.64;100.00
50867;BME280;36839;51.946;21.002;2022-11-15T04:48:24;100220.45;;;4.64;100.00
50867;BME280;36839;51.946;21.002;2022-11-15T04:50:52;100219.02;;;4.61;100.00
50867;BME280;36839;51.946;21.002;2022-11-15T04:53:18;100223.30;;;4.57;100.00
50867;BME280;36839;51.946;21.002;2022-11-15T04:55:47;100215.00;;;4.54;100.00
50867;BME280;36839;51.946;21.002;2022-11-15T04:58:18;100215.00;;;4.54;100.00
50867;BME280;36839;51.946;21.002;2022-11-15T05:00:44;100219.51;;;4.49;100.00
50867;BME280;36839;51.946;21.002;2022-11-15T05:03:12;100215.64;;;4.47;100.00
50867;BME280;36839;51.946;21.002;2022-11-15T05:05:58;100221.70;;;4.49;100.00
50867;BME280;36839;51.946;21.002;2022-11-15T05:08:25;100217.67;;;4.52;100.00
50867;BME280;36839;51.946;21.002;2022-11-15T05:10:55;100217.67;;;4.52;100.00
50867;BME280;36839;51.946;21.002;2022-11-15T05:13:22;100212.27;;;4.54;100.00
50867;BME280;36839;51.946;21.002;2022-11-15T05:15:49;100214.02;;;4.58;100.00
50867;BME280;36839;51.946;21.002;2022-11-15T05:18:19;100214.02;;;4.58;100.00
50867;BME280;36839;51.946;21.002;2022-11-15T05:20:45;100211.13;;;4.53;100.00
50867;BME280;36839;51.946;21.002;2022-11-15T05:23:16;100206.97;;;4.50;100.00
50867;BME280;36839;51.946;21.002;2022-11-15T05:25:45;100210.00;;;4.51;100.00
50867;BME280;36839;51.946;21.002;2022-11-15T05:28:14;100209.46;;;4.52;100.00
50867;BME280;36839;51.946;21.002;2022-11-15T05:30:41;100209.46;;;4.52;100.00
50867;BME280;36839;51.946;21.002;2022-11-15T05:33:07;100207.56;;;4.52;100.00
50867;BME280;36839;51.946;21.002;2022-11-15T05:35:41;100193.88;;;4.52;100.00
50867;BME280;36839;51.946;21.002;2022-11-15T05:38:09;100193.88;;;4.52;100.00
50867;BME280;36839;51.946;21.002;2022-11-15T05:40:36;100203.22;;;4.54;100.00
50867;BME280;36839;51.946;21.002;2022-11-15T05:43:05;100195.02;;;4.54;100.00
50867;BME280;36839;51.946;21.002;2022-11-15T05:45:33;100198.28;;;4.53;100.00
50867;BME280;36839;51.946;21.002;2022-11-15T05:48:04;100200.36;;;4.49;100.00
50867;BME280;36839;51.946;21.002;2022-11-15T05:50:31;100202.20;;;4.46;100.00
50867;BME280;36839;51.946;21.002;2022-11-15T05:52:58;100202.20;;;4.46;100.00
50867;BME280;36839;51.946;21.002;2022-11-15T05:55:28;100198.65;;;4.36;100.00
50867;BME280;36839;51.946;21.002;2022-11-15T05:57:54;100196.42;;;4.36;100.00
50867;BME280;36839;51.946;21.002;2022-11-15T06:00:20;100196.42;;;4.36;100.00
50867;BME280;36839;51.946;21.002;2022-11-15T06:02:48;100191.72;;;4.34;100.00
50867;BME280;36839;51.946;21.002;2022-11-15T06:05:16;100191.72;;;4.34;100.00
50867;BME280;36839;51.946;21.002;2022-11-15T06:07:43;100201.53;;;4.23;100.00
50867;BME280;36839;51.946;21.002;2022-11-15T06:10:14;100203.97;;;4.22;100.00
50867;BME280;36839;51.946;21.002;2022-11-15T06:12:40;100203.97;;;4.22;100.00
50867;BME280;36839;51.946;21.002;2022-11-15T06:15:07;100204.14;;;4.18;100.00
50867;BME280;36839;51.946;21.002;2022-11-15T06:17:37;100204.14;;;4.18;100.00
50867;BME280;36839;51.946;21.002;2022-11-15T06:20:04;100213.01;;;4.13;100.00
50867;BME280;36839;51.946;21.002;2022-11-15T06:22:32;100213.01;;;4.13;100.00
50867;BME280;36839;51.946;21.002;2022-11-15T06:24:58;100221.67;;;4.19;100.00
50867;BME280;36839;51.946;21.002;2022-11-15T06:27:24;100213.77;;;4.20;100.00
50867;BME280;36839;51.946;21.002;2022-11-15T06:29:51;100217.63;;;4.22;100.00
50867;BME280;36839;51.946;21.002;2022-11-15T06:32:17;100217.63;;;4.22;100.00
50867;BME280;36839;51.946;21.002;2022-11-15T06:34:45;100210.50;;;4.21;100.00
50867;BME280;36839;51.946;21.002;2022-11-15T06:37:11;100207.06;;;4.25;100.00
50867;BME280;36839;51.946;21.002;2022-11-15T06:39:38;100207.06;;;4.25;100.00
50867;BME280;36839;51.946;21.002;2022-11-15T06:42:04;100205.03;;;4.30;100.00
50867;BME280;36839;51.946;21.002;2022-11-15T06:44:35;100209.72;;;4.32;100.00
50867;BME280;36839;51.946;21.002;2022-11-15T06:47:01;100211.45;;;4.36;100.00
50867;BME280;36839;51.946;21.002;2022-11-15T06:49:27;100215.36;;;4.37;100.00
50867;BME280;36839;51.946;21.002;2022-11-15T06:51:57;100221.95;;;4.39;100.00
50867;BME280;36839;51.946;21.002;2022-11-15T06:54:24;100215.05;;;4.36;100.00
50867;BME280;36839;51.946;21.002;2022-11-15T06:56:54;100221.36;;;4.37;100.00
50867;BME280;36839;51.946;21.002;2022-11-15T06:59:20;100221.36;;;4.37;100.00
50867;BME280;36839;51.946;21.002;2022-11-15T07:01:51;100214.42;;;4.34;100.00
50867;BME280;36839;51.946;21.002;2022-11-15T07:04:18;100215.56;;;4.36;100.00
50867;BME280;36839;51.946;21.002;2022-11-15T07:06:48;100213.36;;;4.35;100.00
50867;BME280;36839;51.946;21.002;2022-11-15T07:09:15;100215.89;;;4.37;100.00
50867;BME280;36839;51.946;21.002;2022-11-15T07:11:43;100212.83;;;4.36;100.00
50867;BME280;36839;51.946;21.002;2022-11-15T07:14:11;100216.42;;;4.36;100.00
50867;BME280;36839;51.946;21.002;2022-11-15T07:16:43;100209.59;;;4.36;100.00
50867;BME280;36839;51.946;21.002;2022-11-15T07:19:09;100213.45;;;4.38;100.00
50867;BME280;36839;51.946;21.002;2022-11-15T07:21:40;100216.48;;;4.39;100.00
50867;BME280;36839;51.946;21.002;2022-11-15T07:24:06;100211.98;;;4.35;100.00
50867;BME280;36839;51.946;21.002;2022-11-15T07:26:36;100215.95;;;4.39;100.00
50867;BME280;36839;51.946;21.002;2022-11-15T07:29:02;100209.48;;;4.43;100.00
50867;BME280;36839;51.946;21.002;2022-11-15T07:31:31;100210.78;;;4.40;100.00
50867;BME280;36839;51.946;21.002;2022-11-15T07:33:59;100211.85;;;4.39;100.00
50867;BME280;36839;51.946;21.002;2022-11-15T07:36:25;100211.85;;;4.39;100.00
50867;BME280;36839;51.946;21.002;2022-11-15T07:38:51;100206.51;;;4.44;100.00
50867;BME280;36839;51.946;21.002;2022-11-15T07:41:19;100202.50;;;4.47;100.00
50867;BME280;36839;51.946;21.002;2022-11-15T07:43:50;100202.50;;;4.47;100.00
50867;BME280;36839;51.946;21.002;2022-11-15T07:46:16;100208.87;;;4.50;100.00
50867;BME280;36839;51.946;21.002;2022-11-15T07:48:44;100208.69;;;4.54;100.00
50867;BME280;36839;51.946;21.002;2022-11-15T07:51:15;100204.69;;;4.56;100.00
50867;BME280;36839;51.946;21.002;2022-11-15T07:53:44;100204.69;;;4.56;100.00
50867;BME280;36839;51.946;21.002;2022-11-15T07:56:11;100198.98;;;4.58;100.00
50867;BME280;36839;51.946;21.002;2022-11-15T07:58:39;100198.98;;;4.58;100.00
50867;BME280;36839;51.946;21.002;2022-11-15T08:01:09;100200.70;;;4.62;100.00
50867;BME280;36839;51.946;21.002;2022-11-15T08:03:40;100189.41;;;4.58;100.00
50867;BME280;36839;51.946;21.002;2022-11-15T08:06:08;100188.98;;;4.64;100.00
50867;BME280;36839;51.946;21.002;2022-11-15T08:08:36;100188.98;;;4.64;100.00
50867;BME280;36839;51.946;21.002;2022-11-15T08:11:04;100179.63;;;4.71;100.00
50867;BME280;36839;51.946;21.002;2022-11-15T08:13:31;100179.18;;;4.74;100.00
50867;BME280;36839;51.946;21.002;2022-11-15T08:16:00;100179.18;;;4.74;100.00
50867;BME280;36839;51.946;21.002;2022-11-15T08:18:26;100172.10;;;4.76;100.00
50867;BME280;36839;51.946;21.002;2022-11-15T08:20:57;100173.83;;;4.79;100.00
50867;BME280;36839;51.946;21.002;2022-11-15T08:23:21;100169.78;;;4.82;100.00
50867;BME280;36839;51.946;21.002;2022-11-15T08:25:51;100160.59;;;4.85;100.00
50867;BME280;36839;51.946;21.002;2022-11-15T08:28:19;100163.14;;;4.90;100.00
50867;BME280;36839;51.946;21.002;2022-11-15T08:30:45;100163.14;;;4.90;100.00
50867;BME280;36839;51.946;21.002;2022-11-15T08:33:13;100159.23;;;4.97;100.00
50867;BME280;36839;51.946;21.002;2022-11-15T08:35:43;100158.52;;;5.02;100.00
50867;BME280;36839;51.946;21.002;2022-11-15T08:38:10;100162.63;;;5.02;100.00
50867;BME280;36839;51.946;21.002;2022-11-15T08:40:38;100162.63;;;5.02;100.00
50867;BME280;36839;51.946;21.002;2022-11-15T08:43:05;100156.70;;;5.05;100.00
50867;BME280;36839;51.946;21.002;2022-11-15T08:45:36;100150.73;;;5.08;100.00
50867;BME280;36839;51.946;21.002;2022-11-15T08:48:04;100154.31;;;5.08;100.00
50867;BME280;36839;51.946;21.002;2022-11-15T08:50:33;100155.20;;;5.11;100.00
50867;BME280;36839;51.946;21.002;2022-11-15T08:53:06;100151.17;;;5.14;100.00
50867;BME280;36839;51.946;21.002;2022-11-15T08:55:35;100146.43;;;5.21;100.00
50867;BME280;36839;51.946;21.002;2022-11-15T08:58:01;100151.47;;;5.27;100.00
50867;BME280;36839;51.946;21.002;2022-11-15T09:00:29;100153.52;;;5.31;100.00
50867;BME280;36839;51.946;21.002;2022-11-15T09:02:55;100143.69;;;5.33;100.00
50867;BME280;36839;51.946;21.002;2022-11-15T09:05:22;100143.69;;;5.33;100.00
50867;BME280;36839;51.946;21.002;2022-11-15T09:07:53;100141.25;;;5.34;100.00
50867;BME280;36839;51.946;21.002;2022-11-15T09:10:21;100137.67;;;5.33;100.00
50867;BME280;36839;51.946;21.002;2022-11-15T09:12:49;100137.67;;;5.33;100.00
50867;BME280;36839;51.946;21.002;2022-11-15T09:15:16;100136.06;;;5.35;100.00
50867;BME280;36839;51.946;21.002;2022-11-15T09:17:43;100137.73;;;5.36;100.00
50867;BME280;36839;51.946;21.002;2022-11-15T09:20:10;100131.71;;;5.36;100.00
50867;BME280;36839;51.946;21.002;2022-11-15T09:22:41;100131.71;;;5.36;100.00
50867;BME280;36839;51.946;21.002;2022-11-15T09:25:14;100126.17;;;5.45;100.00
50867;BME280;36839;51.946;21.002;2022-11-15T09:27:40;100118.91;;;5.51;100.00
50867;BME280;36839;51.946;21.002;2022-11-15T09:30:07;100118.91;;;5.51;100.00
50867;BME280;36839;51.946;21.002;2022-11-15T09:32:37;100121.16;;;5.54;100.00
50867;BME280;36839;51.946;21.002;2022-11-15T09:35:04;100112.75;;;5.58;100.00
50867;BME280;36839;51.946;21.002;2022-11-15T09:37:32;100112.75;;;5.58;100.00
50867;BME280;36839;51.946;21.002;2022-11-15T09:40:03;100115.50;;;5.70;100.00
50867;BME280;36839;51.946;21.002;2022-11-15T09:45:50;100100.93;;;5.81;100.00
50867;BME280;36839;51.946;21.002;2022-11-15T09:48:29;100102.30;;;5.81;100.00
50867;BME280;36839;51.946;21.002;2022-11-15T09:50:53;100091.34;;;5.81;100.00
50867;BME280;36839;51.946;21.002;2022-11-15T09:53:55;100091.34;;;5.81;100.00
50867;BME280;36839;51.946;21.002;2022-11-15T09:56:23;100087.27;;;5.84;100.00
50867;BME280;36839;51.946;21.002;2022-11-15T10:04:34;100075.44;;;5.81;100.00
50867;BME280;36839;51.946;21.002;2022-11-15T10:12:14;100065.05;;;5.83;100.00
50867;BME280;36839;51.946;21.002;2022-11-15T10:14:42;100054.76;;;5.76;100.00
50867;BME280;36839;51.946;21.002;2022-11-15T10:22:44;100054.42;;;5.72;100.00
50867;BME280;36839;51.946;21.002;2022-11-15T10:25:27;100053.89;;;5.87;100.00
50867;BME280;36839;51.946;21.002;2022-11-15T10:30:50;100049.55;;;5.88;100.00
50867;BME280;36839;51.946;21.002;2022-11-15T10:33:36;100046.14;;;5.95;100.00
50867;BME280;36839;51.946;21.002;2022-11-15T10:36:20;100041.70;;;5.92;100.00
50867;BME280;36839;51.946;21.002;2022-11-15T10:41:32;100033.11;;;5.88;100.00
50867;BME280;36839;51.946;21.002;2022-11-15T10:44:17;100033.11;;;5.88;100.00
50867;BME280;36839;51.946;21.002;2022-11-15T10:46:41;100044.83;;;5.86;100.00
50867;BME280;36839;51.946;21.002;2022-11-15T10:49:21;100037.77;;;5.88;100.00
50867;BME280;36839;51.946;21.002;2022-11-15T10:51:52;100038.70;;;5.93;100.00
50867;BME280;36839;51.946;21.002;2022-11-15T10:54:25;100041.20;;;5.95;100.00
50867;BME280;36839;51.946;21.002;2022-11-15T10:56:55;100041.20;;;5.95;100.00
50867;BME280;36839;51.946;21.002;2022-11-15T10:59:26;100043.77;;;5.99;100.00
50867;BME280;36839;51.946;21.002;2022-11-15T11:01:53;100026.95;;;5.95;100.00
50867;BME280;36839;51.946;21.002;2022-11-15T11:04:20;100028.97;;;6.00;100.00
50867;BME280;36839;51.946;21.002;2022-11-15T11:06:55;100027.10;;;6.03;100.00
50867;BME280;36839;51.946;21.002;2022-11-15T11:09:34;100021.73;;;6.08;100.00
50867;BME280;36839;51.946;21.002;2022-11-15T11:12:03;100016.33;;;6.13;100.00
50867;BME280;36839;51.946;21.002;2022-11-15T11:14:34;100016.33;;;6.13;100.00
50867;BME280;36839;51.946;21.002;2022-11-15T11:20:07;100010.45;;;6.21;100.00
50867;BME280;36839;51.946;21.002;2022-11-15T11:22:41;100010.45;;;6.21;100.00
50867;BME280;36839;51.946;21.002;2022-11-15T11:28:18;99998.82;;;6.31;100.00
50867;BME280;36839;51.946;21.002;2022-11-15T11:30:52;99992.28;;;6.35;100.00
50867;BME280;36839;51.946;21.002;2022-11-15T11:33:21;99986.52;;;6.34;100.00
50867;BME280;36839;51.946;21.002;2022-11-15T11:35:56;99983.88;;;6.39;100.00
50867;BME280;36839;51.946;21.002;2022-11-15T11:38:31;99983.88;;;6.39;100.00
50867;BME280;36839;51.946;21.002;2022-11-15T11:46:56;99977.69;;;6.46;100.00
50867;BME280;36839;51.946;21.002;2022-11-15T11:49:45;99965.38;;;6.48;100.00
50867;BME280;36839;51.946;21.002;2022-11-15T11:55:12;99955.23;;;6.49;100.00
50867;BME280;36839;51.946;21.002;2022-11-15T12:00:31;99960.56;;;6.55;100.00
50867;BME280;36839;51.946;21.002;2022-11-15T12:03:09;99950.53;;;6.64;100.00
50867;BME280;36839;51.946;21.002;2022-11-15T12:11:37;99948.94;;;6.68;100.00
50867;BME280;36839;51.946;21.002;2022-11-15T12:13:50;99938.77;;;6.66;100.00
50867;BME280;36839;51.946;21.002;2022-11-15T12:16:28;99940.42;;;6.67;100.00
50867;BME280;36839;51.946;21.002;2022-11-15T12:19:01;99936.88;;;6.69;100.00
50867;BME280;36839;51.946;21.002;2022-11-15T12:21:34;99932.76;;;6.69;100.00
50867;BME280;36839;51.946;21.002;2022-11-15T12:24:08;99932.76;;;6.69;100.00
50867;BME280;36839;51.946;21.002;2022-11-15T12:26:37;99932.05;;;6.76;100.00
50867;BME280;36839;51.946;21.002;2022-11-15T12:32:03;99929.36;;;6.81;100.00
50867;BME280;36839;51.946;21.002;2022-11-15T12:34:41;99929.36;;;6.81;100.00
50867;BME280;36839;51.946;21.002;2022-11-15T12:45:31;99915.20;;;6.89;100.00
50867;BME280;36839;51.946;21.002;2022-11-15T12:50:58;99905.88;;;6.90;100.00
50867;BME280;36839;51.946;21.002;2022-11-15T12:53:33;99909.71;;;6.89;100.00
50867;BME280;36839;51.946;21.002;2022-11-15T12:58:51;99907.60;;;6.74;100.00
50867;BME280;36839;51.946;21.002;2022-11-15T13:07:00;99902.57;;;6.69;100.00
50867;BME280;36839;51.946;21.002;2022-11-15T13:12:11;99899.54;;;6.68;100.00
50867;BME280;36839;51.946;21.002;2022-11-15T13:14:44;99895.99;;;6.70;100.00
50867;BME280;36839;51.946;21.002;2022-11-15T13:22:58;99900.66;;;6.69;100.00
50867;BME280;36839;51.946;21.002;2022-11-15T13:25:41;99902.57;;;6.69;100.00
50867;BME280;36839;51.946;21.002;2022-11-15T13:30:40;99888.30;;;6.69;100.00
50867;BME280;36839;51.946;21.002;2022-11-15T13:35:57;99887.93;;;6.63;100.00
50867;BME280;36839;51.946;21.002;2022-11-15T13:40:55;99874.21;;;6.63;100.00
50867;BME280;36839;51.946;21.002;2022-11-15T13:46:20;99866.30;;;6.64;100.00
50867;BME280;36839;51.946;21.002;2022-11-15T13:48:53;99866.06;;;6.68;100.00
50867;BME280;36839;51.946;21.002;2022-11-15T13:51:38;99851.59;;;6.73;100.00
50867;BME280;36839;51.946;21.002;2022-11-15T13:54:27;99854.34;;;6.73;100.00
50867;BME280;36839;51.946;21.002;2022-11-15T13:56:56;99854.34;;;6.73;100.00
50867;BME280;36839;51.946;21.002;2022-11-15T13:59:33;99854.13;;;6.57;100.00
50867;BME280;36839;51.946;21.002;2022-11-15T14:02:24;99854.13;;;6.57;100.00
50867;BME280;36839;51.946;21.002;2022-11-15T14:04:50;99848.61;;;6.55;100.00
50867;BME280;36839;51.946;21.002;2022-11-15T14:07:21;99848.61;;;6.55;100.00
50867;BME280;36839;51.946;21.002;2022-11-15T14:09:48;99847.26;;;6.57;100.00
50867;BME280;36839;51.946;21.002;2022-11-15T14:15:30;99851.92;;;6.57;100.00
50867;BME280;36839;51.946;21.002;2022-11-15T14:17:35;99858.44;;;6.53;100.00
50867;BME280;36839;51.946;21.002;2022-11-15T14:23:05;99851.83;;;6.33;100.00
50867;BME280;36839;51.946;21.002;2022-11-15T14:25:35;99858.08;;;6.28;100.00
50867;BME280;36839;51.946;21.002;2022-11-15T14:30:44;99850.78;;;6.17;100.00
50867;BME280;36839;51.946;21.002;2022-11-15T14:33:28;99851.61;;;6.17;100.00
50867;BME280;36839;51.946;21.002;2022-11-15T14:35:57;99845.62;;;6.20;100.00
50867;BME280;36839;51.946;21.002;2022-11-15T14:38:25;99845.62;;;6.20;100.00
50867;BME280;36839;51.946;21.002;2022-11-15T14:40:55;99845.17;;;6.26;100.00
50867;BME280;36839;51.946;21.002;2022-11-15T14:43:23;99853.97;;;6.28;100.00
50867;BME280;36839;51.946;21.002;2022-11-15T14:45:51;99853.97;;;6.28;100.00
50867;BME280;36839;51.946;21.002;2022-11-15T14:48:18;99856.20;;;6.31;100.00
50867;BME280;36839;51.946;21.002;2022-11-15T14:50:48;99851.00;;;6.32;100.00
50867;BME280;36839;51.946;21.002;2022-11-15T14:53:17;99841.94;;;6.32;100.00
50867;BME280;36839;51.946;21.002;2022-11-15T14:55:52;99847.66;;;6.27;100.00
50867;BME280;36839;51.946;21.002;2022-11-15T14:58:18;99847.66;;;6.27;100.00
50867;BME280;36839;51.946;21.002;2022-11-15T15:00:45;99847.24;;;6.19;100.00
50867;BME280;36839;51.946;21.002;2022-11-15T15:03:13;99847.24;;;6.19;100.00
50867;BME280;36839;51.946;21.002;2022-11-15T15:05:41;99834.91;;;6.19;100.00
50867;BME280;36839;51.946;21.002;2022-11-15T15:08:10;99829.97;;;6.18;100.00